Time;durP1;ratioP1;P1;durP2;ratioP2;P2;SDS_P1;SDS_P2;PMS_P1;PMS_P2;Temp;Humidity;BMP_temperature;BMP_pressure;BME280_temperature;BME280_humidity;BME280_pressure;Samples;Min_cycle;Max_cycle;Signal;HPM_P1;HPM_P2
2022/01/28 00:01:22;;;;;;;2.65;0.65;;;25.70;99.90;;;;;;4984119;28;20023;-73
2022/01/28 00:03:49;;;;;;;3.13;0.47;;;25.50;99.90;;;;;;4981273;28;20034;-73
2022/01/28 00:06:17;;;;;;;4.60;1.30;;;25.60;99.90;;;;;;4982828;28;20498;-72
2022/01/28 00:08:45;;;;;;;4.13;0.70;;;25.90;99.90;;;;;;4983334;28;20030;-73
2022/01/28 00:11:13;;;;;;;3.05;1.05;;;26.20;99.90;;;;;;4983590;28;20018;-73
2022/01/28 00:13:42;;;;;;;0.93;0.50;;;26.50;99.90;;;;;;4980824;28;20022;-74
2022/01/28 00:16:53;;;;;;;3.85;0.70;;;26.10;99.90;;;;;;4983303;28;20025;-73
2022/01/28 00:38:33;;;;;;;2.10;0.77;;;26.70;99.90;;;;;;4986351;28;20077;-73
2022/01/28 00:41:00;;;;;;;1.73;0.50;;;26.40;99.90;;;;;;4987508;28;20095;-74
2022/01/28 00:43:28;;;;;;;4.18;0.90;;;26.40;99.90;;;;;;4984810;28;20026;-73
2022/01/28 00:45:56;;;;;;;3.55;0.60;;;26.40;99.90;;;;;;4980590;28;20035;-74
2022/01/28 00:48:24;;;;;;;1.75;0.65;;;26.50;99.90;;;;;;4982866;28;20022;-74
2022/01/28 00:50:51;;;;;;;2.83;0.75;;;26.50;99.90;;;;;;4985900;28;20025;-74
2022/01/28 00:53:19;;;;;;;3.28;0.90;;;26.50;99.90;;;;;;4976855;28;20372;-74
2022/01/28 00:55:47;;;;;;;5.22;0.75;;;26.70;99.90;;;;;;4991329;28;20040;-74
2022/01/28 00:58:15;;;;;;;4.13;0.65;;;27.00;99.90;;;;;;4994718;28;20467;-74
2022/01/28 01:00:44;;;;;;;1.92;0.63;;;27.30;99.90;;;;;;4994622;28;20026;-75
2022/01/28 01:03:12;;;;;;;6.57;1.05;;;27.40;99.90;;;;;;4992301;28;20105;-74
2022/01/28 01:05:40;;;;;;;4.05;0.60;;;27.30;99.90;;;;;;4991562;28;20034;-75
2022/01/28 01:08:08;;;;;;;4.70;0.75;;;27.20;99.90;;;;;;4991542;28;20081;-74
2022/01/28 01:10:36;;;;;;;2.35;0.60;;;27.20;99.90;;;;;;4993363;28;20053;-73
2022/01/28 01:13:04;;;;;;;5.10;0.80;;;27.00;99.90;;;;;;4990539;28;20026;-75
2022/01/28 01:15:37;;;;;;;1.75;0.90;;;27.40;99.90;;;;;;4993676;28;20518;-75
2022/01/28 01:20:59;;;;;;;2.45;0.70;;;28.00;99.90;;;;;;4993554;28;20022;-73
2022/01/28 01:23:31;;;;;;;2.88;1.00;;;28.30;99.90;;;;;;4993486;28;20043;-73
2022/01/28 01:28:33;;;;;;;3.88;0.95;;;28.30;99.90;;;;;;4992738;28;20084;-74
2022/01/28 01:31:04;;;;;;;1.80;0.90;;;28.20;99.90;;;;;;4994153;28;20490;-74
2022/01/28 01:33:38;;;;;;;1.85;0.95;;;28.20;99.90;;;;;;4993358;28;20432;-74
2022/01/28 01:36:06;;;;;;;2.25;0.70;;;27.80;99.90;;;;;;4993356;28;20108;-74
2022/01/28 01:38:37;;;;;;;1.35;0.75;;;27.80;99.90;;;;;;4993744;28;20022;-74
2022/01/28 01:41:11;;;;;;;2.95;0.77;;;27.90;99.90;;;;;;4993148;28;20037;-74
2022/01/28 01:47:08;;;;;;;2.97;0.80;;;27.30;99.90;;;;;;4989223;28;20251;-75
2022/01/28 01:52:13;;;;;;;;;;;27.70;99.90;;;;;;4990558;28;20046;-74
2022/01/28 01:54:43;;;;;;;3.88;0.98;;;27.80;99.90;;;;;;4992035;28;19906;-74
2022/01/28 01:57:13;;;;;;;2.10;0.60;;;28.00;99.90;;;;;;4992184;28;20081;-73
2022/01/28 01:59:43;;;;;;;2.75;0.73;;;28.20;99.90;;;;;;4993416;28;20053;-75
2022/01/28 02:02:11;;;;;;;6.25;0.90;;;28.30;99.90;;;;;;4993414;28;20021;-74
2022/01/28 02:04:39;;;;;;;2.35;0.70;;;27.90;99.90;;;;;;4993710;28;20022;-74
2022/01/28 02:07:08;;;;;;;3.08;0.98;;;27.50;99.90;;;;;;4993199;28;20061;-74
2022/01/28 02:09:36;;;;;;;3.25;0.68;;;27.30;99.90;;;;;;4993284;28;20033;-74
2022/01/28 02:12:04;;;;;;;2.30;0.65;;;27.40;99.90;;;;;;4993013;28;20030;-74
2022/01/28 02:14:32;;;;;;;2.33;1.00;;;28.00;99.90;;;;;;4993453;28;20022;-74
2022/01/28 02:17:00;;;;;;;5.80;1.10;;;28.20;99.90;;;;;;5007215;28;20030;-73
2022/01/28 02:19:28;;;;;;;1.77;0.75;;;28.40;99.90;;;;;;4988178;28;20026;-72
2022/01/28 02:21:56;;;;;;;2.63;1.02;;;28.80;99.90;;;;;;4990170;28;20535;-75
2022/01/28 02:24:36;;;;;;;3.33;0.90;;;28.80;99.90;;;;;;4991354;28;20094;-75
2022/01/28 02:27:05;;;;;;;3.22;0.63;;;28.80;99.90;;;;;;4992885;28;20064;-75
2022/01/28 02:29:35;;;;;;;4.57;0.98;;;29.00;99.90;;;;;;4992898;28;20019;-75
2022/01/28 02:32:06;;;;;;;2.55;0.68;;;29.10;99.90;;;;;;4993337;28;20034;-74
2022/01/28 02:34:36;;;;;;;5.68;0.80;;;29.40;99.90;;;;;;4993419;28;20373;-75
2022/01/28 02:37:04;;;;;;;4.97;1.08;;;29.30;99.90;;;;;;4992952;28;20181;-75
2022/01/28 02:39:32;;;;;;;3.17;0.80;;;29.00;99.90;;;;;;4993196;28;20014;-74
2022/01/28 02:42:12;;;;;;;3.42;0.77;;;28.90;99.90;;;;;;4992431;28;20026;-74
2022/01/28 02:44:53;;;;;;;4.95;0.93;;;29.20;99.90;;;;;;4991241;28;20014;-73
2022/01/28 02:47:35;;;;;;;3.47;0.70;;;29.30;99.90;;;;;;4992642;28;20073;-74
2022/01/28 02:50:03;;;;;;;3.97;0.95;;;29.30;99.90;;;;;;4992595;28;20031;-74
2022/01/28 02:52:38;;;;;;;5.47;1.00;;;29.50;99.90;;;;;;4991233;28;20026;-74
2022/01/28 02:55:10;;;;;;;4.97;1.00;;;29.10;99.90;;;;;;4991995;28;20386;-73
2022/01/28 02:57:50;;;;;;;2.55;0.85;;;28.80;99.90;;;;;;4992984;28;20498;-74
2022/01/28 03:00:18;;;;;;;4.63;0.93;;;28.60;99.90;;;;;;4993157;28;20084;-73
2022/01/28 03:02:45;;;;;;;5.68;3.10;;;28.80;99.90;;;;;;4993088;28;20475;-74
2022/01/28 03:07:44;;;;;;;2.15;0.63;;;29.20;99.90;;;;;;4992777;28;20026;-73
2022/01/28 03:15:26;;;;;;;4.55;0.65;;;28.80;99.90;;;;;;4993331;28;20073;-74
2022/01/28 03:18:16;;;;;;;3.53;0.60;;;29.20;99.90;;;;;;4992614;28;20053;-75
2022/01/28 03:20:57;;;;;;;2.85;1.20;;;29.50;99.90;;;;;;4992994;28;20109;-74
2022/01/28 03:23:25;;;;;;;2.58;0.90;;;29.40;99.90;;;;;;4973202;28;20047;-75
2022/01/28 03:25:52;;;;;;;4.88;1.05;;;29.30;99.90;;;;;;4973218;28;20074;-74
2022/01/28 03:28:21;;;;;;;3.63;0.85;;;29.20;99.90;;;;;;4973288;28;20061;-74
2022/01/28 03:30:48;;;;;;;1.98;0.80;;;29.60;99.90;;;;;;4978971;28;20491;-74
2022/01/28 03:33:20;;;;;;;6.97;0.88;;;29.50;99.90;;;;;;4992630;28;20042;-74
2022/01/28 03:35:48;;;;;;;2.78;0.63;;;29.60;99.90;;;;;;4992324;28;20027;-74
2022/01/28 03:38:15;;;;;;;7.95;0.98;;;29.50;99.90;;;;;;4992359;28;20023;-74
2022/01/28 03:40:43;;;;;;;3.25;0.73;;;29.60;99.90;;;;;;4992484;28;20085;-73
2022/01/28 03:43:11;;;;;;;4.40;0.80;;;29.60;99.90;;;;;;4992136;28;20033;-74
2022/01/28 03:45:38;;;;;;;4.63;0.85;;;29.40;99.90;;;;;;4992324;28;20033;-73
2022/01/28 03:48:06;;;;;;;5.15;0.70;;;29.30;99.90;;;;;;4991540;28;20018;-74
2022/01/28 03:50:34;;;;;;;2.58;0.90;;;29.50;99.90;;;;;;4991337;28;20030;-74
2022/01/28 03:53:03;;;;;;;3.67;0.85;;;29.70;99.90;;;;;;4993110;28;20014;-73
2022/01/28 03:55:31;;;;;;;2.70;1.15;;;29.90;99.90;;;;;;4996237;28;20496;-74
2022/01/28 03:57:58;;;;;;;7.30;1.10;;;29.90;99.90;;;;;;4996174;28;20427;-75
2022/01/28 04:00:29;;;;;;;5.18;0.90;;;29.90;99.90;;;;;;4993266;28;20054;-76
2022/01/28 04:03:12;;;;;;;4.43;0.95;;;29.50;99.90;;;;;;4995810;28;20442;-74
2022/01/28 04:11:25;;;;;;;5.68;0.75;;;28.90;99.90;;;;;;4993428;28;20037;-74
2022/01/28 04:11:30;;;;;;;3.35;0.85;;;28.80;99.90;;;;;;4996220;28;20032;-75
2022/01/28 04:14:08;;;;;;;2.42;0.80;;;28.80;99.90;;;;;;4995955;28;20014;-75
2022/01/28 04:19:22;;;;;;;4.78;1.08;;;29.20;99.90;;;;;;4995904;28;20166;-75
2022/01/28 04:21:49;;;;;;;3.25;0.60;;;29.30;99.90;;;;;;4995591;28;20014;-73
2022/01/28 04:24:17;;;;;;;2.47;0.65;;;29.60;99.90;;;;;;4995504;28;20125;-74
2022/01/28 04:26:45;;;;;;;6.85;1.08;;;29.60;99.90;;;;;;4992942;28;20041;-75
2022/01/28 04:29:13;;;;;;;6.93;0.70;;;29.80;99.90;;;;;;4995311;28;20019;-75
2022/01/28 04:31:45;;;;;;;5.88;1.27;;;29.40;99.90;;;;;;4992680;28;20026;-75
2022/01/28 04:34:14;;;;;;;4.88;0.73;;;29.00;99.90;;;;;;4995621;28;20108;-73
2022/01/28 04:37:03;;;;;;;4.05;1.00;;;28.80;99.90;;;;;;4995498;28;20074;-73
2022/01/28 04:42:43;;;;;;;;;;;28.80;99.90;;;;;;4995851;28;20033;-75
2022/01/28 04:53:35;;;;;;;5.68;0.73;;;28.60;99.90;;;;;;4967071;28;20030;-76
2022/01/28 04:59:25;;;;;;;;;;;28.60;99.90;;;;;;4994943;28;20041;-76
2022/01/28 05:04:45;;;;;;;5.07;0.95;;;28.60;99.90;;;;;;4995231;28;20481;-76
2022/01/28 05:13:41;;;;;;;3.78;0.88;;;28.80;99.90;;;;;;4995003;28;20342;-74
2022/01/28 05:26:34;;;;;;;4.70;0.85;;;28.60;99.90;;;;;;4994636;28;20038;-74
2022/01/28 05:29:02;;;;;;;2.97;0.75;;;28.40;99.90;;;;;;4994620;28;20018;-74
2022/01/28 05:31:29;;;;;;;2.50;0.50;;;28.30;99.90;;;;;;4993101;28;20027;-74
2022/01/28 05:33:57;;;;;;;4.03;0.85;;;28.40;99.90;;;;;;4994414;28;20025;-75
2022/01/28 05:36:26;;;;;;;4.65;0.88;;;28.30;99.90;;;;;;4994242;28;20399;-74
2022/01/28 05:38:54;;;;;;;3.05;0.93;;;28.40;99.90;;;;;;4994467;28;20044;-75
2022/01/28 05:41:22;;;;;;;4.05;0.70;;;28.50;99.90;;;;;;4994265;28;20043;-72
2022/01/28 05:43:50;;;;;;;6.70;1.45;;;28.60;99.90;;;;;;4994012;28;20034;-74
2022/01/28 05:46:18;;;;;;;1.55;0.40;;;28.50;99.90;;;;;;4993770;28;20076;-75
2022/01/28 05:48:46;;;;;;;5.20;0.88;;;28.20;99.90;;;;;;4994065;28;20467;-73
2022/01/28 05:51:14;;;;;;;4.38;1.15;;;27.60;99.90;;;;;;4993898;28;20102;-74
2022/01/28 05:53:41;;;;;;;5.75;0.75;;;27.80;99.90;;;;;;4994029;28;20025;-74
2022/01/28 05:56:09;;;;;;;4.15;0.70;;;27.50;99.90;;;;;;4994030;28;20030;-73
2022/01/28 05:58:37;;;;;;;7.10;1.10;;;27.40;99.90;;;;;;4991322;28;20010;-73
2022/01/28 06:01:05;;;;;;;6.75;1.17;;;27.20;99.90;;;;;;4993719;28;20027;-75
2022/01/28 06:03:32;;;;;;;2.80;0.85;;;27.10;99.90;;;;;;4993633;28;20064;-74
2022/01/28 06:06:00;;;;;;;1.75;0.85;;;27.20;99.90;;;;;;4991116;28;20110;-74
2022/01/28 06:08:28;;;;;;;10.95;0.80;;;27.30;99.90;;;;;;4993743;28;20025;-75
2022/01/28 06:10:55;;;;;;;5.35;0.55;;;27.30;99.90;;;;;;4993471;28;20030;-75
2022/01/28 06:13:23;;;;;;;1.65;0.60;;;27.30;99.90;;;;;;4993760;28;20018;-74
2022/01/28 06:15:51;;;;;;;6.20;1.05;;;27.10;99.90;;;;;;4993355;28;20025;-74
2022/01/28 06:18:18;;;;;;;4.93;1.25;;;27.10;99.90;;;;;;4992202;28;20352;-73
2022/01/28 06:20:46;;;;;;;3.30;0.60;;;26.90;99.90;;;;;;4993284;28;20043;-74
2022/01/28 06:23:14;;;;;;;4.13;0.80;;;26.60;99.90;;;;;;4991943;28;20045;-72
2022/01/28 06:25:43;;;;;;;2.95;0.35;;;26.60;99.90;;;;;;4993300;28;20160;-74
2022/01/28 06:28:14;;;;;;;4.22;0.90;;;26.60;99.90;;;;;;4993505;28;20010;-73
2022/01/28 06:30:41;;;;;;;6.07;1.08;;;26.60;99.90;;;;;;4993249;28;20104;-74
2022/01/28 06:33:13;;;;;;;1.73;0.57;;;26.50;99.90;;;;;;4993223;28;20085;-74
2022/01/28 06:35:45;;;;;;;2.50;0.82;;;26.60;99.90;;;;;;4991835;28;20018;-73
2022/01/28 06:38:14;;;;;;;3.95;0.85;;;26.70;99.90;;;;;;4993368;28;20023;-74
2022/01/28 06:40:42;;;;;;;2.90;0.80;;;26.80;99.90;;;;;;4993301;28;20120;-74
2022/01/28 06:43:11;;;;;;;3.33;0.82;;;26.90;99.90;;;;;;4992884;28;20017;-74
2022/01/28 06:45:42;;;;;;;4.10;1.05;;;26.90;99.90;;;;;;4992963;28;20034;-74
2022/01/28 06:48:11;;;;;;;1.58;0.57;;;26.80;99.90;;;;;;4993208;28;20044;-75
2022/01/28 06:50:43;;;;;;;5.95;0.75;;;26.80;99.90;;;;;;4993229;28;20506;-74
2022/01/28 06:53:14;;;;;;;10.38;1.83;;;26.80;99.90;;;;;;4993079;28;20022;-75
2022/01/28 06:55:42;;;;;;;3.10;0.60;;;26.80;99.90;;;;;;4992996;28;20105;-74
2022/01/28 06:58:10;;;;;;;2.80;0.63;;;27.00;99.90;;;;;;4990646;28;20023;-74
2022/01/28 07:00:40;;;;;;;4.15;0.73;;;27.40;99.90;;;;;;4987410;28;20427;-75
2022/01/28 07:03:12;;;;;;;5.38;1.42;;;27.20;99.90;;;;;;4992782;28;20053;-73
2022/01/28 07:05:41;;;;;;;4.72;1.15;;;26.80;99.90;;;;;;4973816;28;20070;-74
2022/01/28 07:08:09;;;;;;;3.15;0.77;;;26.60;99.90;;;;;;4973663;28;20019;-75
2022/01/28 07:10:37;;;;;;;6.10;0.70;;;26.80;99.90;;;;;;4983063;28;20026;-74
2022/01/28 07:13:05;;;;;;;5.75;0.88;;;26.90;99.90;;;;;;4994672;28;20113;-73
2022/01/28 07:15:33;;;;;;;11.60;0.80;;;27.10;99.90;;;;;;4986335;28;20019;-74
2022/01/28 07:18:03;;;;;;;7.45;1.75;;;27.10;99.90;;;;;;4978949;28;20441;-75
2022/01/28 07:20:33;;;;;;;6.47;1.10;;;27.20;99.90;;;;;;4988036;28;20054;-75
2022/01/28 07:23:02;;;;;;;4.82;1.00;;;27.50;99.90;;;;;;4992033;28;20047;-75
2022/01/28 07:25:30;;;;;;;10.90;1.38;;;27.60;99.90;;;;;;4990212;28;20077;-75
2022/01/28 07:27:58;;;;;;;5.70;1.08;;;27.80;99.90;;;;;;4993219;28;20030;-75
2022/01/28 07:30:25;;;;;;;2.42;0.90;;;27.80;99.90;;;;;;4995547;28;20387;-75
2022/01/28 07:32:53;;;;;;;4.55;0.95;;;27.60;99.90;;;;;;4996440;28;20065;-75
2022/01/28 07:35:21;;;;;;;5.95;1.25;;;27.60;99.90;;;;;;4996687;28;20026;-75
2022/01/28 07:37:48;;;;;;;4.07;1.13;;;27.60;99.90;;;;;;4990496;28;20018;-74
2022/01/28 07:40:16;;;;;;;6.88;0.65;;;27.80;99.90;;;;;;4986412;28;20026;-75
2022/01/28 07:42:44;;;;;;;4.10;0.88;;;27.90;99.90;;;;;;4984687;28;20033;-73
2022/01/28 07:45:16;;;;;;;6.63;0.65;;;27.80;99.90;;;;;;4992195;28;20145;-72
2022/01/28 07:47:45;;;;;;;4.78;1.13;;;27.40;99.90;;;;;;4992453;28;20117;-73
2022/01/28 07:50:14;;;;;;;5.07;0.93;;;27.10;99.90;;;;;;4989150;28;20034;-73
2022/01/28 07:52:42;;;;;;;5.93;1.00;;;26.80;99.90;;;;;;4989297;28;20011;-75
2022/01/28 07:55:14;;;;;;;6.32;1.13;;;26.40;99.90;;;;;;4987902;28;20026;-75
2022/01/28 07:57:43;;;;;;;6.72;0.90;;;26.10;99.90;;;;;;4987620;28;20011;-72
2022/01/28 08:00:13;;;;;;;5.15;0.75;;;26.00;99.90;;;;;;4987965;28;20030;-74
2022/01/28 08:02:44;;;;;;;4.18;1.08;;;26.00;99.90;;;;;;4988418;28;20028;-73
2022/01/28 08:05:13;;;;;;;4.18;0.52;;;25.90;99.90;;;;;;4989370;28;20030;-73
2022/01/28 08:07:41;;;;;;;3.13;0.70;;;25.80;99.90;;;;;;4988554;28;20088;-73
2022/01/28 08:10:09;;;;;;;3.60;0.93;;;25.70;99.90;;;;;;4988385;28;20031;-74
2022/01/28 08:12:51;;;;;;;4.65;1.00;;;25.50;99.90;;;;;;4988626;28;20033;-74
2022/01/28 08:15:20;;;;;;;5.97;1.13;;;25.20;99.90;;;;;;4988401;28;20026;-73
2022/01/28 08:17:48;;;;;;;3.40;0.70;;;25.10;99.90;;;;;;4989943;28;20061;-72
2022/01/28 08:20:16;;;;;;;8.00;1.55;;;25.00;99.90;;;;;;4986960;28;20027;-73
2022/01/28 08:22:49;;;;;;;7.72;1.20;;;24.90;99.90;;;;;;4987989;28;20035;-73
2022/01/28 08:25:19;;;;;;;4.78;0.93;;;24.90;99.90;;;;;;4992359;28;20466;-73
2022/01/28 08:27:47;;;;;;;6.10;1.05;;;24.80;99.90;;;;;;4987955;28;20026;-74
2022/01/28 08:30:18;;;;;;;10.10;0.95;;;24.70;99.90;;;;;;4979791;28;20030;-73
2022/01/28 08:32:47;;;;;;;4.60;0.88;;;24.60;99.90;;;;;;4988187;28;20029;-72
2022/01/28 08:35:16;;;;;;;5.25;1.25;;;24.50;99.90;;;;;;4990795;28;20021;-73
2022/01/28 08:37:44;;;;;;;8.68;0.70;;;24.40;99.90;;;;;;4990807;28;20085;-73
2022/01/28 08:40:13;;;;;;;3.47;0.70;;;24.30;99.90;;;;;;4990342;28;20046;-73
2022/01/28 08:42:41;;;;;;;5.85;1.30;;;24.30;99.90;;;;;;4989639;28;20025;-73
2022/01/28 08:45:10;;;;;;;4.38;1.27;;;24.20;99.90;;;;;;4990029;28;20084;-73
2022/01/28 08:47:37;;;;;;;4.00;0.93;;;24.10;99.90;;;;;;4991605;28;20102;-73
2022/01/28 08:50:06;;;;;;;7.40;0.68;;;24.10;99.90;;;;;;4986609;28;20514;-72
2022/01/28 08:52:33;;;;;;;4.68;0.90;;;24.00;99.90;;;;;;4988311;28;20021;-73
2022/01/28 08:55:02;;;;;;;4.30;0.88;;;24.00;99.90;;;;;;4985939;28;20069;-73
2022/01/28 08:57:30;;;;;;;3.10;1.17;;;23.90;99.90;;;;;;4985027;28;20080;-73
2022/01/28 08:59:58;;;;;;;4.10;0.93;;;23.90;99.90;;;;;;4984326;28;20026;-73
2022/01/28 09:02:29;;;;;;;6.05;0.85;;;23.90;99.90;;;;;;4984144;28;20106;-72
2022/01/28 09:04:56;;;;;;;3.33;1.00;;;23.80;99.90;;;;;;4984298;28;20021;-72
2022/01/28 09:07:24;;;;;;;8.55;1.10;;;23.80;99.90;;;;;;4985955;28;20383;-73
2022/01/28 09:10:02;;;;;;;6.65;0.68;;;23.70;99.90;;;;;;4984890;28;20026;-73
2022/01/28 09:12:46;;;;;;;4.95;1.33;;;23.60;99.90;;;;;;4985164;28;20029;-72
2022/01/28 09:15:14;;;;;;;4.18;0.77;;;23.60;99.90;;;;;;4992887;28;20018;-74
2022/01/28 09:17:42;;;;;;;5.45;1.52;;;23.50;99.90;;;;;;4994742;28;20518;-74
2022/01/28 09:20:10;;;;;;;7.15;1.23;;;23.50;99.90;;;;;;4994128;28;20028;-74
2022/01/28 09:22:37;;;;;;;2.78;0.68;;;23.40;99.90;;;;;;4993823;28;20089;-72
2022/01/28 09:25:05;;;;;;;6.63;1.42;;;23.40;99.90;;;;;;4993696;28;20113;-73
2022/01/28 09:27:33;;;;;;;3.63;1.05;;;23.30;99.90;;;;;;4986814;28;20027;-73
2022/01/28 09:30:01;;;;;;;7.25;1.45;;;23.30;99.90;;;;;;4984895;28;20394;-73
2022/01/28 09:32:29;;;;;;;7.20;1.30;;;23.20;99.90;;;;;;4981926;28;20539;-73
2022/01/28 09:34:56;;;;;;;6.25;0.80;;;23.20;99.90;;;;;;4988723;28;20028;-72
2022/01/28 09:37:24;;;;;;;5.97;1.40;;;23.20;99.90;;;;;;4991420;28;20113;-73
2022/01/28 09:39:52;;;;;;;7.20;1.38;;;23.10;99.90;;;;;;4992561;28;20029;-72
2022/01/28 09:42:22;;;;;;;6.50;0.90;;;23.00;99.90;;;;;;4989695;28;20030;-73
2022/01/28 09:44:50;;;;;;;8.48;0.93;;;23.10;99.90;;;;;;4991993;28;20019;-73
2022/01/28 09:47:18;;;;;;;6.60;1.20;;;23.00;99.90;;;;;;4991523;28;20038;-73
2022/01/28 09:49:51;;;;;;;5.85;0.98;;;23.00;99.90;;;;;;4989767;28;20018;-72
2022/01/28 09:52:19;;;;;;;6.85;1.15;;;23.00;99.90;;;;;;4992093;28;20089;-72
2022/01/28 09:54:47;;;;;;;3.85;1.02;;;23.00;99.90;;;;;;4991569;28;20101;-72
2022/01/28 09:57:27;;;;;;;4.75;1.13;;;22.90;99.90;;;;;;4991605;28;20030;-73
2022/01/28 09:59:54;;;;;;;5.32;1.02;;;22.90;99.90;;;;;;4991204;28;20037;-73
2022/01/28 10:02:42;;;;;;;8.73;1.30;;;22.90;99.90;;;;;;4991604;28;20026;-74
2022/01/28 10:05:30;;;;;;;4.93;1.10;;;22.80;99.90;;;;;;4988785;28;20027;-73
2022/01/28 10:08:01;;;;;;;6.72;1.40;;;22.80;99.90;;;;;;4991459;28;20383;-71
2022/01/28 10:10:53;;;;;;;11.57;1.30;;;22.80;99.90;;;;;;4991921;28;20014;-72
2022/01/28 10:13:31;;;;;;;6.68;1.08;;;22.70;99.90;;;;;;4991234;28;20380;-72
2022/01/28 10:16:11;;;;;;;9.82;1.20;;;22.70;99.90;;;;;;4991300;28;20026;-72
2022/01/28 10:18:49;;;;;;;14.07;1.10;;;22.70;99.90;;;;;;4991388;28;20407;-72
2022/01/28 10:21:26;;;;;;;4.70;1.27;;;22.70;99.90;;;;;;4991501;28;20100;-74
2022/01/28 10:24:01;;;;;;;6.68;1.38;;;22.60;99.90;;;;;;4990851;28;20043;-73
2022/01/28 10:27:05;;;;;;;7.97;1.48;;;22.60;99.90;;;;;;4991392;28;20026;-72
2022/01/28 10:29:44;;;;;;;5.88;1.48;;;22.60;99.90;;;;;;4988508;28;20034;-74
2022/01/28 10:32:21;;;;;;;4.05;1.08;;;22.50;99.90;;;;;;4991070;28;20034;-72
2022/01/28 10:34:51;;;;;;;5.22;1.35;;;22.60;99.90;;;;;;4989405;28;20022;-73
2022/01/28 10:37:22;;;;;;;7.85;1.55;;;22.60;99.90;;;;;;4991043;28;20054;-73
2022/01/28 10:39:57;;;;;;;5.10;1.00;;;22.50;99.90;;;;;;4991553;28;20025;-74
2022/01/28 10:42:37;;;;;;;8.52;1.20;;;22.50;99.90;;;;;;4990999;28;20113;-74
2022/01/28 10:45:12;;;;;;;5.40;1.58;;;22.50;99.90;;;;;;4990492;28;20114;-73
2022/01/28 10:47:43;;;;;;;7.47;1.48;;;22.40;99.90;;;;;;4990682;28;20108;-74
2022/01/28 10:50:22;;;;;;;9.15;1.55;;;22.40;99.90;;;;;;4991078;28;20034;-74
2022/01/28 10:53:00;;;;;;;14.02;1.80;;;22.30;99.90;;;;;;4991652;28;20517;-72
2022/01/28 10:55:28;;;;;;;7.65;2.40;;;22.30;99.90;;;;;;4991479;28;20022;-72
2022/01/28 10:58:11;;;;;;;7.50;2.03;;;22.30;99.90;;;;;;4991627;28;20015;-73
2022/01/28 11:00:41;;;;;;;10.55;1.73;;;22.30;99.90;;;;;;4991874;28;20026;-72
2022/01/28 11:03:12;;;;;;;9.23;2.05;;;22.30;99.90;;;;;;4990940;28;20013;-72
2022/01/28 11:05:41;;;;;;;8.38;1.52;;;22.30;99.90;;;;;;4991310;28;20081;-72
2022/01/28 11:08:13;;;;;;;9.60;1.30;;;22.30;99.90;;;;;;4991016;28;20098;-73
2022/01/28 11:10:42;;;;;;;11.70;1.95;;;22.30;99.90;;;;;;4990983;28;20038;-73
2022/01/28 11:13:11;;;;;;;8.02;1.45;;;22.30;99.90;;;;;;4992694;28;20463;-73
2022/01/28 11:15:39;;;;;;;7.10;1.92;;;22.30;99.90;;;;;;4992954;28;20073;-73
2022/01/28 11:18:09;;;;;;;8.82;1.67;;;22.30;99.90;;;;;;4992825;28;20349;-73
2022/01/28 11:20:41;;;;;;;16.40;1.92;;;22.30;99.90;;;;;;4993263;28;20033;-73
2022/01/28 11:23:42;;;;;;;6.75;1.45;;;22.30;99.90;;;;;;4993212;28;20050;-73
2022/01/28 11:26:39;;;;;;;6.72;1.75;;;22.20;99.90;;;;;;4992583;28;20097;-71
2022/01/28 11:29:17;;;;;;;11.48;2.28;;;22.20;99.90;;;;;;4988640;28;20038;-71
2022/01/28 11:31:54;;;;;;;8.18;1.85;;;22.20;99.90;;;;;;4986965;28;20025;-72
2022/01/28 11:34:30;;;;;;;6.68;1.48;;;22.20;99.90;;;;;;4987077;28;20015;-72
2022/01/28 11:37:17;;;;;;;6.18;1.60;;;22.10;99.90;;;;;;4986845;28;20027;-71
2022/01/28 11:39:48;;;;;;;11.10;1.85;;;22.10;99.90;;;;;;4987008;28;20494;-71
2022/01/28 11:42:31;;;;;;;10.18;1.58;;;22.10;99.90;;;;;;4987748;28;20391;-71
2022/01/28 11:45:01;;;;;;;8.13;1.80;;;22.10;99.90;;;;;;4987062;28;20026;-72
2022/01/28 11:47:33;;;;;;;15.70;2.10;;;22.10;99.90;;;;;;4985734;28;20030;-72
2022/01/28 11:50:14;;;;;;;5.93;1.30;;;22.10;99.90;;;;;;4986903;28;20403;-73
2022/01/28 11:52:45;;;;;;;11.32;2.30;;;22.00;99.90;;;;;;4987021;28;20027;-73
2022/01/28 11:55:20;;;;;;;13.32;1.90;;;22.00;99.90;;;;;;4989583;28;20373;-73
2022/01/28 11:57:53;;;;;;;;;;;22.00;99.90;;;;;;4989609;28;20468;-73
2022/01/28 12:00:28;;;;;;;9.50;1.38;;;22.00;99.90;;;;;;4987970;28;19914;-73
2022/01/28 12:02:56;;;;;;;11.33;1.13;;;22.00;99.90;;;;;;4988215;28;20153;-73
2022/01/28 12:05:33;;;;;;;11.38;1.75;;;21.90;99.90;;;;;;4989630;28;20426;-72
2022/01/28 12:08:06;;;;;;;12.40;2.17;;;21.90;99.90;;;;;;4984821;28;20027;-72
2022/01/28 12:10:40;;;;;;;6.35;1.38;;;21.90;99.90;;;;;;4984539;28;20475;-72
2022/01/28 12:13:12;;;;;;;8.93;1.88;;;21.90;99.90;;;;;;4984941;28;20487;-72
2022/01/28 12:16:11;;;;;;;14.57;1.80;;;21.90;99.90;;;;;;4987546;28;20026;-71
2022/01/28 12:18:49;;;;;;;11.88;2.05;;;21.90;99.90;;;;;;4986000;28;20085;-72
2022/01/28 12:21:20;;;;;;;8.90;1.48;;;21.90;99.90;;;;;;4988678;28;20540;-71
2022/01/28 12:23:48;;;;;;;6.18;1.40;;;21.90;99.90;;;;;;4982628;28;20125;-72
2022/01/28 12:26:19;;;;;;;9.18;1.55;;;21.90;99.90;;;;;;4984275;28;20088;-73
2022/01/28 12:28:50;;;;;;;7.97;1.40;;;21.90;99.90;;;;;;4984662;28;20022;-72
2022/01/28 12:31:27;;;;;;;10.15;1.70;;;21.80;99.90;;;;;;4988230;28;20026;-71
2022/01/28 12:34:00;;;;;;;12.20;2.25;;;21.80;99.90;;;;;;4988314;28;20033;-72
2022/01/28 12:36:38;;;;;;;10.55;1.27;;;21.80;99.90;;;;;;4986622;28;20019;-72
2022/01/28 12:41:43;;;;;;;10.38;1.02;;;21.70;99.90;;;;;;4996351;28;20495;-72
2022/01/28 12:44:14;;;;;;;10.60;1.90;;;21.80;99.90;;;;;;4995807;28;20019;-72
2022/01/28 12:46:50;;;;;;;11.18;1.77;;;21.70;99.90;;;;;;4996371;28;20034;-72
2022/01/28 12:49:23;;;;;;;9.38;1.95;;;21.70;99.90;;;;;;4996355;28;20471;-72
2022/01/28 12:52:05;;;;;;;12.48;2.30;;;21.70;99.90;;;;;;4996341;28;20034;-72
2022/01/28 12:54:36;;;;;;;5.80;1.50;;;21.60;99.90;;;;;;4996181;28;20061;-72
2022/01/28 12:57:05;;;;;;;9.55;2.40;;;21.60;99.90;;;;;;4996321;28;20472;-72
2022/01/28 12:59:33;;;;;;;10.60;1.85;;;21.50;99.90;;;;;;4996058;28;20495;-72
2022/01/28 13:02:01;;;;;;;14.32;2.08;;;21.50;99.90;;;;;;4995940;28;20030;-72
2022/01/28 13:04:49;;;;;;;13.60;1.60;;;21.50;99.90;;;;;;4995758;28;20022;-72
2022/01/28 13:09:55;;;;;;;6.03;1.67;;;21.50;99.90;;;;;;4996013;28;20149;-72
2022/01/28 13:12:28;;;;;;;6.93;1.40;;;21.50;99.90;;;;;;4995987;28;20027;-72
2022/01/28 13:15:03;;;;;;;6.50;1.40;;;21.50;99.90;;;;;;4995783;28;20503;-72
2022/01/28 13:17:31;;;;;;;8.00;2.22;;;21.50;99.90;;;;;;4995766;28;20034;-72
2022/01/28 13:20:03;;;;;;;9.98;1.70;;;21.40;99.90;;;;;;4995738;28;20356;-72
2022/01/28 13:22:32;;;;;;;5.63;1.60;;;21.40;99.90;;;;;;4995410;28;20042;-72
2022/01/28 13:25:00;;;;;;;10.38;1.67;;;21.40;99.90;;;;;;4995432;28;20487;-72
2022/01/28 13:27:45;;;;;;;6.15;1.30;;;21.30;99.90;;;;;;4994831;28;20486;-72
2022/01/28 13:30:15;;;;;;;12.82;1.50;;;21.30;99.90;;;;;;4995467;28;20041;-72
2022/01/28 13:32:49;;;;;;;6.60;1.75;;;21.30;99.90;;;;;;4995620;28;20026;-72
2022/01/28 13:35:21;;;;;;;18.90;1.77;;;21.30;99.90;;;;;;4995409;28;20464;-72
2022/01/28 13:37:51;;;;;;;12.10;1.70;;;21.20;99.90;;;;;;4995319;28;20037;-72
2022/01/28 13:40:26;;;;;;;8.95;1.83;;;21.20;99.90;;;;;;4995174;28;20026;-72
2022/01/28 13:43:10;;;;;;;7.47;1.73;;;21.30;99.90;;;;;;4995323;28;20184;-72
2022/01/28 13:45:57;;;;;;;6.07;1.45;;;21.30;99.90;;;;;;4995177;28;20042;-72
2022/01/28 13:48:34;;;;;;;8.35;1.80;;;21.20;99.90;;;;;;4995113;28;20027;-72
2022/01/28 13:51:11;;;;;;;12.07;1.73;;;21.20;99.90;;;;;;4994991;28;20026;-72
2022/01/28 13:54:22;;;;;;;9.85;1.17;;;21.20;99.90;;;;;;4994960;28;20076;-72
2022/01/28 13:56:48;;;;;;;12.05;1.80;;;21.20;99.90;;;;;;4994601;28;20109;-72
2022/01/28 13:59:24;;;;;;;8.40;1.55;;;21.20;99.90;;;;;;4994900;28;20464;-72
2022/01/28 14:01:54;;;;;;;13.18;1.52;;;21.10;99.90;;;;;;4994979;28;20023;-72
2022/01/28 14:04:25;;;;;;;8.30;1.58;;;21.10;99.90;;;;;;4994850;28;20097;-72
2022/01/28 14:07:14;;;;;;;9.18;1.80;;;21.10;99.90;;;;;;4994674;28;20502;-72
2022/01/28 14:09:46;;;;;;;6.22;2.28;;;21.10;99.90;;;;;;4994773;28;20080;-72
2022/01/28 14:12:53;;;;;;;13.68;2.67;;;21.10;99.90;;;;;;4993335;28;20026;-72
2022/01/28 14:15:34;;;;;;;5.70;1.33;;;21.10;99.90;;;;;;4993106;28;20055;-72
2022/01/28 14:18:02;;;;;;;5.47;1.63;;;21.10;99.90;;;;;;4994561;28;20026;-72
2022/01/28 14:20:30;;;;;;;16.58;2.05;;;21.10;99.90;;;;;;4993181;28;20465;-72
2022/01/28 14:22:59;;;;;;;10.38;1.80;;;21.10;99.90;;;;;;4994499;28;20092;-72
2022/01/28 14:25:26;;;;;;;8.55;1.55;;;21.00;99.90;;;;;;4994203;28;20109;-72
2022/01/28 14:31:08;;;;;;;9.70;1.45;;;21.00;99.90;;;;;;4953872;29;20106;-73
2022/01/28 14:33:37;;;;;;;7.15;1.25;;;21.00;99.90;;;;;;4939103;29;20023;-72
2022/01/28 14:36:05;;;;;;;8.07;1.48;;;20.90;99.90;;;;;;4975925;28;20047;-73